sensor_id;sensor_type;location;lat;lon;timestamp;P1;durP1;ratioP1;P2;durP2;ratioP2
32216;SDS011;18709;51.140;4.088;2022-11-14T00:00:30;29.80;;;16.30;;
32216;SDS011;18709;51.140;4.088;2022-11-14T00:03:00;33.05;;;16.88;;
32216;SDS011;18709;51.140;4.088;2022-11-14T00:05:27;28.20;;;15.40;;
32216;SDS011;18709;51.140;4.088;2022-11-14T00:07:53;27.15;;;15.52;;
32216;SDS011;18709;51.140;4.088;2022-11-14T00:10:19;24.60;;;15.70;;
32216;SDS011;18709;51.140;4.088;2022-11-14T00:12:45;27.60;;;14.27;;
32216;SDS011;18709;51.140;4.088;2022-11-14T00:15:11;24.65;;;15.23;;
32216;SDS011;18709;51.140;4.088;2022-11-14T00:17:37;25.85;;;15.07;;
32216;SDS011;18709;51.140;4.088;2022-11-14T00:20:03;26.98;;;14.98;;
32216;SDS011;18709;51.140;4.088;2022-11-14T00:22:30;25.98;;;15.40;;
32216;SDS011;18709;51.140;4.088;2022-11-14T00:24:56;27.25;;;15.27;;
32216;SDS011;18709;51.140;4.088;2022-11-14T00:27:22;27.40;;;15.98;;
32216;SDS011;18709;51.140;4.088;2022-11-14T00:29:48;26.27;;;15.18;;
32216;SDS011;18709;51.140;4.088;2022-11-14T00:32:14;29.80;;;15.88;;
32216;SDS011;18709;51.140;4.088;2022-11-14T00:34:39;29.25;;;16.45;;
32216;SDS011;18709;51.140;4.088;2022-11-14T00:37:05;29.05;;;15.27;;
32216;SDS011;18709;51.140;4.088;2022-11-14T00:39:31;27.85;;;15.05;;
32216;SDS011;18709;51.140;4.088;2022-11-14T00:41:56;29.77;;;16.63;;
32216;SDS011;18709;51.140;4.088;2022-11-14T00:44:22;25.67;;;15.57;;
32216;SDS011;18709;51.140;4.088;2022-11-14T00:46:48;29.73;;;15.75;;
32216;SDS011;18709;51.140;4.088;2022-11-14T00:49:14;29.65;;;15.63;;
32216;SDS011;18709;51.140;4.088;2022-11-14T00:51:39;26.55;;;15.35;;
32216;SDS011;18709;51.140;4.088;2022-11-14T00:54:05;25.38;;;14.07;;
32216;SDS011;18709;51.140;4.088;2022-11-14T00:56:31;23.38;;;14.55;;
32216;SDS011;18709;51.140;4.088;2022-11-14T00:58:56;24.10;;;14.70;;
32216;SDS011;18709;51.140;4.088;2022-11-14T01:01:22;27.52;;;15.07;;
32216;SDS011;18709;51.140;4.088;2022-11-14T01:03:48;26.40;;;14.93;;
32216;SDS011;18709;51.140;4.088;2022-11-14T01:06:15;24.23;;;13.85;;
32216;SDS011;18709;51.140;4.088;2022-11-14T01:08:42;22.40;;;13.35;;
32216;SDS011;18709;51.140;4.088;2022-11-14T01:11:16;25.02;;;14.68;;
32216;SDS011;18709;51.140;4.088;2022-11-14T01:13:43;24.55;;;13.80;;
32216;SDS011;18709;51.140;4.088;2022-11-14T01:16:09;24.15;;;13.45;;
32216;SDS011;18709;51.140;4.088;2022-11-14T01:18:35;20.70;;;13.57;;
32216;SDS011;18709;51.140;4.088;2022-11-14T01:21:09;24.60;;;14.00;;
32216;SDS011;18709;51.140;4.088;2022-11-14T01:23:37;23.67;;;13.85;;
32216;SDS011;18709;51.140;4.088;2022-11-14T01:26:03;25.05;;;14.18;;
32216;SDS011;18709;51.140;4.088;2022-11-14T01:28:34;26.60;;;14.15;;
32216;SDS011;18709;51.140;4.088;2022-11-14T01:31:14;24.58;;;14.95;;
32216;SDS011;18709;51.140;4.088;2022-11-14T01:33:41;24.50;;;13.75;;
32216;SDS011;18709;51.140;4.088;2022-11-14T01:36:08;22.17;;;13.15;;
32216;SDS011;18709;51.140;4.088;2022-11-14T01:38:34;23.42;;;12.98;;
32216;SDS011;18709;51.140;4.088;2022-11-14T01:41:00;24.80;;;13.93;;
32216;SDS011;18709;51.140;4.088;2022-11-14T01:43:27;23.38;;;13.38;;
32216;SDS011;18709;51.140;4.088;2022-11-14T01:51:04;22.70;;;13.07;;
32216;SDS011;18709;51.140;4.088;2022-11-14T01:53:39;21.42;;;12.02;;
32216;SDS011;18709;51.140;4.088;2022-11-14T01:56:06;21.80;;;13.02;;
32216;SDS011;18709;51.140;4.088;2022-11-14T01:58:34;20.20;;;12.63;;
32216;SDS011;18709;51.140;4.088;2022-11-14T02:01:04;23.05;;;13.10;;
32216;SDS011;18709;51.140;4.088;2022-11-14T02:03:30;21.25;;;13.05;;
32216;SDS011;18709;51.140;4.088;2022-11-14T02:05:57;24.42;;;13.13;;
32216;SDS011;18709;51.140;4.088;2022-11-14T02:08:25;21.23;;;12.93;;
32216;SDS011;18709;51.140;4.088;2022-11-14T02:10:51;22.65;;;12.57;;
32216;SDS011;18709;51.140;4.088;2022-11-14T02:13:17;21.35;;;13.05;;
32216;SDS011;18709;51.140;4.088;2022-11-14T02:15:42;22.90;;;13.38;;
32216;SDS011;18709;51.140;4.088;2022-11-14T02:18:08;23.02;;;13.25;;
32216;SDS011;18709;51.140;4.088;2022-11-14T02:20:36;25.02;;;13.82;;
32216;SDS011;18709;51.140;4.088;2022-11-14T02:23:07;20.13;;;13.07;;
32216;SDS011;18709;51.140;4.088;2022-11-14T02:25:36;22.52;;;12.55;;
32216;SDS011;18709;51.140;4.088;2022-11-14T02:28:03;19.77;;;12.27;;
32216;SDS011;18709;51.140;4.088;2022-11-14T02:30:31;19.42;;;12.30;;
32216;SDS011;18709;51.140;4.088;2022-11-14T02:32:57;22.75;;;12.57;;
32216;SDS011;18709;51.140;4.088;2022-11-14T02:35:23;21.88;;;12.90;;
32216;SDS011;18709;51.140;4.088;2022-11-14T02:37:49;23.00;;;12.85;;
32216;SDS011;18709;51.140;4.088;2022-11-14T02:40:14;19.83;;;11.98;;
32216;SDS011;18709;51.140;4.088;2022-11-14T02:42:40;22.50;;;13.38;;
32216;SDS011;18709;51.140;4.088;2022-11-14T02:45:06;22.48;;;13.27;;
32216;SDS011;18709;51.140;4.088;2022-11-14T02:47:33;25.77;;;13.75;;
32216;SDS011;18709;51.140;4.088;2022-11-14T02:49:58;23.70;;;13.52;;
32216;SDS011;18709;51.140;4.088;2022-11-14T02:52:24;20.30;;;13.00;;
32216;SDS011;18709;51.140;4.088;2022-11-14T02:54:50;29.48;;;14.60;;
32216;SDS011;18709;51.140;4.088;2022-11-14T02:57:15;22.17;;;13.43;;
32216;SDS011;18709;51.140;4.088;2022-11-14T02:59:41;22.73;;;13.95;;
32216;SDS011;18709;51.140;4.088;2022-11-14T03:02:07;24.55;;;13.65;;
32216;SDS011;18709;51.140;4.088;2022-11-14T03:04:32;20.98;;;13.20;;
32216;SDS011;18709;51.140;4.088;2022-11-14T03:06:58;25.02;;;14.25;;
32216;SDS011;18709;51.140;4.088;2022-11-14T03:09:24;26.77;;;13.90;;
32216;SDS011;18709;51.140;4.088;2022-11-14T03:11:49;23.15;;;14.07;;
32216;SDS011;18709;51.140;4.088;2022-11-14T03:14:15;27.88;;;13.95;;
32216;SDS011;18709;51.140;4.088;2022-11-14T03:16:41;25.92;;;14.48;;
32216;SDS011;18709;51.140;4.088;2022-11-14T03:19:06;25.00;;;13.88;;
32216;SDS011;18709;51.140;4.088;2022-11-14T03:21:32;24.25;;;13.68;;
32216;SDS011;18709;51.140;4.088;2022-11-14T03:23:58;27.00;;;14.52;;
32216;SDS011;18709;51.140;4.088;2022-11-14T03:26:23;25.48;;;14.60;;
32216;SDS011;18709;51.140;4.088;2022-11-14T03:28:49;24.02;;;13.75;;
32216;SDS011;18709;51.140;4.088;2022-11-14T03:31:15;29.98;;;14.15;;
32216;SDS011;18709;51.140;4.088;2022-11-14T03:33:40;26.83;;;13.80;;
32216;SDS011;18709;51.140;4.088;2022-11-14T03:36:06;26.15;;;14.93;;
32216;SDS011;18709;51.140;4.088;2022-11-14T03:38:33;26.52;;;14.25;;
32216;SDS011;18709;51.140;4.088;2022-11-14T03:40:59;31.30;;;14.63;;
32216;SDS011;18709;51.140;4.088;2022-11-14T03:43:28;26.75;;;15.02;;
32216;SDS011;18709;51.140;4.088;2022-11-14T03:45:59;26.73;;;14.80;;
32216;SDS011;18709;51.140;4.088;2022-11-14T03:48:26;27.60;;;15.68;;
32216;SDS011;18709;51.140;4.088;2022-11-14T03:50:53;28.25;;;16.73;;
32216;SDS011;18709;51.140;4.088;2022-11-14T03:53:18;29.58;;;16.33;;
32216;SDS011;18709;51.140;4.088;2022-11-14T03:55:44;26.45;;;15.00;;
32216;SDS011;18709;51.140;4.088;2022-11-14T03:58:10;30.27;;;14.98;;
32216;SDS011;18709;51.140;4.088;2022-11-14T04:00:36;26.10;;;15.48;;
32216;SDS011;18709;51.140;4.088;2022-11-14T04:03:02;26.65;;;15.38;;
32216;SDS011;18709;51.140;4.088;2022-11-14T04:05:28;24.67;;;15.65;;
32216;SDS011;18709;51.140;4.088;2022-11-14T04:07:53;24.75;;;15.60;;
32216;SDS011;18709;51.140;4.088;2022-11-14T04:10:19;26.73;;;15.63;;
32216;SDS011;18709;51.140;4.088;2022-11-14T04:12:48;23.73;;;15.20;;
32216;SDS011;18709;51.140;4.088;2022-11-14T04:15:18;25.02;;;15.00;;
32216;SDS011;18709;51.140;4.088;2022-11-14T04:17:44;28.77;;;15.63;;
32216;SDS011;18709;51.140;4.088;2022-11-14T04:20:11;28.50;;;15.32;;
32216;SDS011;18709;51.140;4.088;2022-11-14T04:22:38;27.63;;;15.38;;
32216;SDS011;18709;51.140;4.088;2022-11-14T04:25:05;31.08;;;17.77;;
32216;SDS011;18709;51.140;4.088;2022-11-14T04:27:32;32.00;;;17.27;;
32216;SDS011;18709;51.140;4.088;2022-11-14T04:29:58;34.30;;;18.13;;
32216;SDS011;18709;51.140;4.088;2022-11-14T04:32:23;32.42;;;18.08;;
32216;SDS011;18709;51.140;4.088;2022-11-14T04:34:49;27.90;;;16.55;;
32216;SDS011;18709;51.140;4.088;2022-11-14T04:37:15;30.35;;;17.35;;
32216;SDS011;18709;51.140;4.088;2022-11-14T04:39:40;28.35;;;17.23;;
32216;SDS011;18709;51.140;4.088;2022-11-14T04:42:06;29.35;;;17.13;;
32216;SDS011;18709;51.140;4.088;2022-11-14T04:44:32;34.38;;;17.70;;
32216;SDS011;18709;51.140;4.088;2022-11-14T04:46:57;30.73;;;16.48;;
32216;SDS011;18709;51.140;4.088;2022-11-14T04:49:23;30.10;;;16.83;;
32216;SDS011;18709;51.140;4.088;2022-11-14T04:51:49;28.65;;;16.25;;
32216;SDS011;18709;51.140;4.088;2022-11-14T04:54:14;28.45;;;16.52;;
32216;SDS011;18709;51.140;4.088;2022-11-14T04:56:40;30.20;;;16.83;;
32216;SDS011;18709;51.140;4.088;2022-11-14T04:59:06;29.90;;;17.20;;
32216;SDS011;18709;51.140;4.088;2022-11-14T05:01:32;34.53;;;17.58;;
32216;SDS011;18709;51.140;4.088;2022-11-14T05:03:57;33.47;;;18.27;;
32216;SDS011;18709;51.140;4.088;2022-11-14T05:06:23;34.25;;;18.10;;
32216;SDS011;18709;51.140;4.088;2022-11-14T05:08:49;34.90;;;18.20;;
32216;SDS011;18709;51.140;4.088;2022-11-14T05:11:15;35.83;;;19.27;;
32216;SDS011;18709;51.140;4.088;2022-11-14T05:13:42;37.30;;;19.80;;
32216;SDS011;18709;51.140;4.088;2022-11-14T05:16:08;38.35;;;20.35;;
32216;SDS011;18709;51.140;4.088;2022-11-14T05:18:34;39.45;;;21.08;;
32216;SDS011;18709;51.140;4.088;2022-11-14T05:21:00;40.83;;;21.38;;
32216;SDS011;18709;51.140;4.088;2022-11-14T05:23:25;37.95;;;19.75;;
32216;SDS011;18709;51.140;4.088;2022-11-14T05:26:04;37.22;;;20.65;;
32216;SDS011;18709;51.140;4.088;2022-11-14T05:28:35;42.47;;;21.98;;
32216;SDS011;18709;51.140;4.088;2022-11-14T05:31:05;44.88;;;20.92;;
32216;SDS011;18709;51.140;4.088;2022-11-14T05:33:32;40.38;;;21.00;;
32216;SDS011;18709;51.140;4.088;2022-11-14T05:36:06;43.70;;;22.17;;
32216;SDS011;18709;51.140;4.088;2022-11-14T05:38:34;39.58;;;21.77;;
32216;SDS011;18709;51.140;4.088;2022-11-14T05:41:03;42.30;;;21.08;;
32216;SDS011;18709;51.140;4.088;2022-11-14T05:43:33;41.30;;;21.50;;
32216;SDS011;18709;51.140;4.088;2022-11-14T05:45:59;36.45;;;20.00;;
32216;SDS011;18709;51.140;4.088;2022-11-14T05:48:26;41.95;;;20.88;;
32216;SDS011;18709;51.140;4.088;2022-11-14T05:50:53;36.53;;;20.50;;
32216;SDS011;18709;51.140;4.088;2022-11-14T05:53:23;33.83;;;19.33;;
32216;SDS011;18709;51.140;4.088;2022-11-14T05:55:50;35.85;;;20.33;;
32216;SDS011;18709;51.140;4.088;2022-11-14T05:58:16;33.17;;;19.30;;
32216;SDS011;18709;51.140;4.088;2022-11-14T06:00:41;37.60;;;19.73;;
32216;SDS011;18709;51.140;4.088;2022-11-14T06:03:08;38.95;;;21.15;;
32216;SDS011;18709;51.140;4.088;2022-11-14T06:05:34;35.17;;;20.02;;
32216;SDS011;18709;51.140;4.088;2022-11-14T06:08:00;36.33;;;19.17;;
32216;SDS011;18709;51.140;4.088;2022-11-14T06:10:26;35.53;;;19.27;;
32216;SDS011;18709;51.140;4.088;2022-11-14T06:12:52;35.45;;;19.38;;
32216;SDS011;18709;51.140;4.088;2022-11-14T06:15:18;36.15;;;19.25;;
32216;SDS011;18709;51.140;4.088;2022-11-14T06:17:44;35.47;;;19.20;;
32216;SDS011;18709;51.140;4.088;2022-11-14T06:20:10;38.22;;;19.60;;
32216;SDS011;18709;51.140;4.088;2022-11-14T06:22:39;31.23;;;18.88;;
32216;SDS011;18709;51.140;4.088;2022-11-14T06:25:05;38.15;;;19.23;;
32216;SDS011;18709;51.140;4.088;2022-11-14T06:27:31;35.67;;;19.08;;
32216;SDS011;18709;51.140;4.088;2022-11-14T06:29:56;35.15;;;18.90;;
32216;SDS011;18709;51.140;4.088;2022-11-14T06:32:22;34.90;;;19.65;;
32216;SDS011;18709;51.140;4.088;2022-11-14T06:34:48;41.33;;;21.10;;
32216;SDS011;18709;51.140;4.088;2022-11-14T06:37:13;34.35;;;19.38;;
32216;SDS011;18709;51.140;4.088;2022-11-14T06:39:39;31.92;;;18.80;;
32216;SDS011;18709;51.140;4.088;2022-11-14T06:42:05;33.25;;;19.27;;
32216;SDS011;18709;51.140;4.088;2022-11-14T06:44:30;32.80;;;19.35;;
32216;SDS011;18709;51.140;4.088;2022-11-14T06:46:56;31.38;;;18.63;;
32216;SDS011;18709;51.140;4.088;2022-11-14T06:49:22;33.40;;;19.73;;
32216;SDS011;18709;51.140;4.088;2022-11-14T06:51:51;32.58;;;19.15;;
32216;SDS011;18709;51.140;4.088;2022-11-14T06:54:17;34.03;;;18.77;;
32216;SDS011;18709;51.140;4.088;2022-11-14T06:56:42;33.92;;;18.83;;
32216;SDS011;18709;51.140;4.088;2022-11-14T06:59:08;38.08;;;20.38;;
32216;SDS011;18709;51.140;4.088;2022-11-14T07:01:34;38.60;;;18.23;;
32216;SDS011;18709;51.140;4.088;2022-11-14T07:03:59;36.55;;;17.60;;
32216;SDS011;18709;51.140;4.088;2022-11-14T07:06:26;32.05;;;17.65;;
32216;SDS011;18709;51.140;4.088;2022-11-14T07:08:54;32.03;;;18.80;;
32216;SDS011;18709;51.140;4.088;2022-11-14T07:11:22;32.97;;;18.50;;
32216;SDS011;18709;51.140;4.088;2022-11-14T07:13:54;30.75;;;17.30;;
32216;SDS011;18709;51.140;4.088;2022-11-14T07:16:25;32.47;;;18.10;;
32216;SDS011;18709;51.140;4.088;2022-11-14T07:18:53;33.55;;;17.90;;
32216;SDS011;18709;51.140;4.088;2022-11-14T07:21:20;34.28;;;17.88;;
32216;SDS011;18709;51.140;4.088;2022-11-14T07:23:46;31.30;;;17.17;;
32216;SDS011;18709;51.140;4.088;2022-11-14T07:26:12;32.55;;;17.88;;
32216;SDS011;18709;51.140;4.088;2022-11-14T07:28:41;34.92;;;17.02;;
32216;SDS011;18709;51.140;4.088;2022-11-14T07:31:09;31.17;;;16.77;;
32216;SDS011;18709;51.140;4.088;2022-11-14T07:33:37;34.00;;;18.42;;
32216;SDS011;18709;51.140;4.088;2022-11-14T07:36:03;27.77;;;16.40;;
32216;SDS011;18709;51.140;4.088;2022-11-14T07:38:30;34.78;;;17.42;;
32216;SDS011;18709;51.140;4.088;2022-11-14T07:40:57;31.98;;;17.77;;
32216;SDS011;18709;51.140;4.088;2022-11-14T07:43:24;31.98;;;16.88;;
32216;SDS011;18709;51.140;4.088;2022-11-14T07:45:50;36.10;;;18.38;;
32216;SDS011;18709;51.140;4.088;2022-11-14T07:48:16;35.42;;;18.05;;
32216;SDS011;18709;51.140;4.088;2022-11-14T07:50:43;30.92;;;17.45;;
32216;SDS011;18709;51.140;4.088;2022-11-14T07:53:09;36.92;;;17.67;;
32216;SDS011;18709;51.140;4.088;2022-11-14T07:55:35;29.70;;;16.80;;
32216;SDS011;18709;51.140;4.088;2022-11-14T07:58:01;30.20;;;16.45;;
32216;SDS011;18709;51.140;4.088;2022-11-14T08:00:27;31.17;;;15.80;;
32216;SDS011;18709;51.140;4.088;2022-11-14T08:02:53;30.27;;;15.77;;
32216;SDS011;18709;51.140;4.088;2022-11-14T08:05:19;30.63;;;15.93;;
32216;SDS011;18709;51.140;4.088;2022-11-14T08:07:45;27.38;;;15.68;;
32216;SDS011;18709;51.140;4.088;2022-11-14T08:10:11;32.13;;;16.00;;
32216;SDS011;18709;51.140;4.088;2022-11-14T08:12:38;29.05;;;15.55;;
32216;SDS011;18709;51.140;4.088;2022-11-14T08:15:08;28.88;;;15.10;;
32216;SDS011;18709;51.140;4.088;2022-11-14T08:17:35;28.88;;;15.82;;
32216;SDS011;18709;51.140;4.088;2022-11-14T08:20:02;27.85;;;15.25;;
32216;SDS011;18709;51.140;4.088;2022-11-14T08:22:29;28.70;;;15.85;;
32216;SDS011;18709;51.140;4.088;2022-11-14T08:24:55;31.25;;;15.45;;
32216;SDS011;18709;51.140;4.088;2022-11-14T08:27:21;28.98;;;15.57;;
32216;SDS011;18709;51.140;4.088;2022-11-14T08:29:47;29.25;;;15.27;;
32216;SDS011;18709;51.140;4.088;2022-11-14T08:32:15;30.70;;;15.65;;
32216;SDS011;18709;51.140;4.088;2022-11-14T08:34:45;25.67;;;15.00;;
32216;SDS011;18709;51.140;4.088;2022-11-14T08:37:10;25.02;;;14.55;;
32216;SDS011;18709;51.140;4.088;2022-11-14T08:39:36;26.65;;;15.25;;
32216;SDS011;18709;51.140;4.088;2022-11-14T08:42:02;27.92;;;15.25;;
32216;SDS011;18709;51.140;4.088;2022-11-14T08:44:27;29.95;;;17.20;;
32216;SDS011;18709;51.140;4.088;2022-11-14T08:46:53;31.13;;;16.52;;
32216;SDS011;18709;51.140;4.088;2022-11-14T08:49:19;27.20;;;15.60;;
32216;SDS011;18709;51.140;4.088;2022-11-14T08:51:45;25.08;;;13.85;;
32216;SDS011;18709;51.140;4.088;2022-11-14T08:54:10;31.50;;;16.80;;
32216;SDS011;18709;51.140;4.088;2022-11-14T08:56:36;30.33;;;16.65;;
32216;SDS011;18709;51.140;4.088;2022-11-14T08:59:02;31.30;;;16.30;;
32216;SDS011;18709;51.140;4.088;2022-11-14T09:01:28;34.08;;;16.58;;
32216;SDS011;18709;51.140;4.088;2022-11-14T09:03:56;33.20;;;16.95;;
32216;SDS011;18709;51.140;4.088;2022-11-14T09:06:22;33.03;;;17.00;;
32216;SDS011;18709;51.140;4.088;2022-11-14T09:08:48;29.13;;;16.30;;
32216;SDS011;18709;51.140;4.088;2022-11-14T09:11:13;29.77;;;15.50;;
32216;SDS011;18709;51.140;4.088;2022-11-14T09:13:39;29.55;;;17.08;;
32216;SDS011;18709;51.140;4.088;2022-11-14T09:16:05;29.38;;;15.98;;
32216;SDS011;18709;51.140;4.088;2022-11-14T09:18:31;32.00;;;16.35;;
32216;SDS011;18709;51.140;4.088;2022-11-14T09:21:00;30.65;;;16.30;;
32216;SDS011;18709;51.140;4.088;2022-11-14T09:23:28;34.60;;;17.33;;
32216;SDS011;18709;51.140;4.088;2022-11-14T09:25:53;38.75;;;17.55;;
32216;SDS011;18709;51.140;4.088;2022-11-14T09:28:21;27.15;;;16.38;;
32216;SDS011;18709;51.140;4.088;2022-11-14T09:30:48;35.17;;;18.15;;
32216;SDS011;18709;51.140;4.088;2022-11-14T09:33:13;30.85;;;15.93;;
32216;SDS011;18709;51.140;4.088;2022-11-14T09:35:39;33.55;;;16.33;;
32216;SDS011;18709;51.140;4.088;2022-11-14T09:38:06;31.10;;;16.17;;
32216;SDS011;18709;51.140;4.088;2022-11-14T09:46:15;40.40;;;17.27;;
32216;SDS011;18709;51.140;4.088;2022-11-14T09:51:14;35.25;;;16.88;;
32216;SDS011;18709;51.140;4.088;2022-11-14T09:56:12;31.83;;;17.43;;
32216;SDS011;18709;51.140;4.088;2022-11-14T09:58:43;34.83;;;18.55;;
32216;SDS011;18709;51.140;4.088;2022-11-14T10:01:10;37.85;;;18.83;;
32216;SDS011;18709;51.140;4.088;2022-11-14T10:03:58;39.85;;;19.50;;
32216;SDS011;18709;51.140;4.088;2022-11-14T10:09:14;32.35;;;18.67;;
32216;SDS011;18709;51.140;4.088;2022-11-14T10:12:08;36.72;;;19.25;;
32216;SDS011;18709;51.140;4.088;2022-11-14T10:14:54;39.35;;;19.45;;
32216;SDS011;18709;51.140;4.088;2022-11-14T10:20:45;37.90;;;19.73;;
32216;SDS011;18709;51.140;4.088;2022-11-14T10:39:20;36.25;;;19.50;;
32216;SDS011;18709;51.140;4.088;2022-11-14T10:42:14;33.42;;;18.98;;
32216;SDS011;18709;51.140;4.088;2022-11-14T10:44:52;34.42;;;19.00;;
32216;SDS011;18709;51.140;4.088;2022-11-14T10:47:24;36.03;;;19.48;;
32216;SDS011;18709;51.140;4.088;2022-11-14T10:49:54;35.38;;;19.50;;
32216;SDS011;18709;51.140;4.088;2022-11-14T10:52:35;36.00;;;20.75;;
32216;SDS011;18709;51.140;4.088;2022-11-14T10:55:06;40.70;;;20.17;;
32216;SDS011;18709;51.140;4.088;2022-11-14T10:57:39;38.55;;;19.27;;
32216;SDS011;18709;51.140;4.088;2022-11-14T11:00:13;36.88;;;19.10;;
32216;SDS011;18709;51.140;4.088;2022-11-14T11:02:54;34.92;;;18.48;;
32216;SDS011;18709;51.140;4.088;2022-11-14T11:05:22;32.95;;;17.50;;
32216;SDS011;18709;51.140;4.088;2022-11-14T11:07:50;31.45;;;17.55;;
32216;SDS011;18709;51.140;4.088;2022-11-14T11:10:35;38.20;;;17.73;;
32216;SDS011;18709;51.140;4.088;2022-11-14T11:13:47;32.15;;;17.52;;
32216;SDS011;18709;51.140;4.088;2022-11-14T11:16:23;26.42;;;17.35;;
32216;SDS011;18709;51.140;4.088;2022-11-14T11:18:50;32.38;;;18.38;;
32216;SDS011;18709;51.140;4.088;2022-11-14T11:21:20;32.97;;;17.38;;
32216;SDS011;18709;51.140;4.088;2022-11-14T11:23:49;30.33;;;16.65;;
32216;SDS011;18709;51.140;4.088;2022-11-14T11:26:23;31.63;;;17.33;;
32216;SDS011;18709;51.140;4.088;2022-11-14T11:34:26;34.78;;;17.73;;
32216;SDS011;18709;51.140;4.088;2022-11-14T11:39:46;34.20;;;18.13;;
32216;SDS011;18709;51.140;4.088;2022-11-14T11:42:17;38.88;;;18.52;;
32216;SDS011;18709;51.140;4.088;2022-11-14T11:44:59;36.17;;;17.48;;
32216;SDS011;18709;51.140;4.088;2022-11-14T11:47:28;31.27;;;18.58;;
32216;SDS011;18709;51.140;4.088;2022-11-14T11:49:57;35.25;;;18.45;;
32216;SDS011;18709;51.140;4.088;2022-11-14T11:57:34;33.05;;;17.25;;
32216;SDS011;18709;51.140;4.088;2022-11-14T12:00:15;31.63;;;17.58;;
32216;SDS011;18709;51.140;4.088;2022-11-14T12:02:45;34.03;;;16.60;;
32216;SDS011;18709;51.140;4.088;2022-11-14T12:10:35;31.63;;;17.58;;
32216;SDS011;18709;51.140;4.088;2022-11-14T12:13:08;31.88;;;17.10;;
32216;SDS011;18709;51.140;4.088;2022-11-14T12:32:03;28.60;;;17.83;;
32216;SDS011;18709;51.140;4.088;2022-11-14T12:34:41;31.00;;;18.80;;
32216;SDS011;18709;51.140;4.088;2022-11-14T12:37:14;31.35;;;17.58;;
32216;SDS011;18709;51.140;4.088;2022-11-14T12:39:40;31.88;;;19.17;;
32216;SDS011;18709;51.140;4.088;2022-11-14T12:42:06;31.98;;;19.38;;
32216;SDS011;18709;51.140;4.088;2022-11-14T12:44:38;31.70;;;17.70;;
32216;SDS011;18709;51.140;4.088;2022-11-14T13:00:38;33.92;;;20.52;;
32216;SDS011;18709;51.140;4.088;2022-11-14T13:03:45;32.65;;;19.92;;
32216;SDS011;18709;51.140;4.088;2022-11-14T13:06:21;34.28;;;20.60;;
32216;SDS011;18709;51.140;4.088;2022-11-14T13:09:05;37.47;;;21.08;;
32216;SDS011;18709;51.140;4.088;2022-11-14T13:11:47;35.60;;;20.25;;
32216;SDS011;18709;51.140;4.088;2022-11-14T13:14:32;34.05;;;19.88;;
32216;SDS011;18709;51.140;4.088;2022-11-14T13:17:34;37.42;;;20.60;;
32216;SDS011;18709;51.140;4.088;2022-11-14T13:20:30;32.20;;;20.67;;
32216;SDS011;18709;51.140;4.088;2022-11-14T13:28:48;35.75;;;21.17;;
32216;SDS011;18709;51.140;4.088;2022-11-14T13:36:44;46.33;;;25.38;;
32216;SDS011;18709;51.140;4.088;2022-11-14T13:39:15;40.88;;;25.38;;
32216;SDS011;18709;51.140;4.088;2022-11-14T13:42:34;43.33;;;23.85;;
32216;SDS011;18709;51.140;4.088;2022-11-14T13:50:15;44.65;;;22.95;;
32216;SDS011;18709;51.140;4.088;2022-11-14T13:52:44;43.85;;;24.65;;
32216;SDS011;18709;51.140;4.088;2022-11-14T13:55:21;41.85;;;25.02;;
32216;SDS011;18709;51.140;4.088;2022-11-14T14:00:19;39.53;;;23.23;;
32216;SDS011;18709;51.140;4.088;2022-11-14T14:05:24;43.67;;;25.48;;
32216;SDS011;18709;51.140;4.088;2022-11-14T14:08:29;42.38;;;23.92;;
32216;SDS011;18709;51.140;4.088;2022-11-14T14:21:43;39.08;;;20.70;;
32216;SDS011;18709;51.140;4.088;2022-11-14T14:24:22;37.85;;;20.33;;
32216;SDS011;18709;51.140;4.088;2022-11-14T14:32:38;37.17;;;20.50;;
32216;SDS011;18709;51.140;4.088;2022-11-14T14:38:21;35.83;;;21.60;;
32216;SDS011;18709;51.140;4.088;2022-11-14T14:40:49;39.20;;;22.48;;
32216;SDS011;18709;51.140;4.088;2022-11-14T14:43:31;42.38;;;23.23;;
32216;SDS011;18709;51.140;4.088;2022-11-14T14:45:58;40.42;;;21.98;;
32216;SDS011;18709;51.140;4.088;2022-11-14T14:48:25;51.60;;;26.83;;
32216;SDS011;18709;51.140;4.088;2022-11-14T14:50:55;79.90;;;36.75;;
32216;SDS011;18709;51.140;4.088;2022-11-14T14:53:23;58.55;;;30.95;;
32216;SDS011;18709;51.140;4.088;2022-11-14T14:55:55;49.90;;;27.30;;
32216;SDS011;18709;51.140;4.088;2022-11-14T15:00:52;40.85;;;22.80;;
32216;SDS011;18709;51.140;4.088;2022-11-14T15:03:18;42.97;;;22.73;;
32216;SDS011;18709;51.140;4.088;2022-11-14T15:05:45;40.00;;;23.23;;
32216;SDS011;18709;51.140;4.088;2022-11-14T15:08:11;37.55;;;21.70;;
32216;SDS011;18709;51.140;4.088;2022-11-14T15:10:39;42.67;;;22.70;;
32216;SDS011;18709;51.140;4.088;2022-11-14T15:13:06;40.95;;;23.58;;
32216;SDS011;18709;51.140;4.088;2022-11-14T15:15:35;41.78;;;23.23;;
32216;SDS011;18709;51.140;4.088;2022-11-14T15:18:04;40.35;;;22.70;;
32216;SDS011;18709;51.140;4.088;2022-11-14T15:20:31;44.53;;;22.35;;
32216;SDS011;18709;51.140;4.088;2022-11-14T15:23:00;46.58;;;23.67;;
32216;SDS011;18709;51.140;4.088;2022-11-14T15:25:45;45.70;;;22.13;;
32216;SDS011;18709;51.140;4.088;2022-11-14T15:28:14;41.75;;;22.52;;
32216;SDS011;18709;51.140;4.088;2022-11-14T15:30:54;42.63;;;22.70;;
32216;SDS011;18709;51.140;4.088;2022-11-14T15:33:30;41.17;;;22.90;;
32216;SDS011;18709;51.140;4.088;2022-11-14T15:38:35;36.55;;;21.38;;
32216;SDS011;18709;51.140;4.088;2022-11-14T15:48:58;36.00;;;19.85;;
32216;SDS011;18709;51.140;4.088;2022-11-14T15:51:38;35.90;;;20.33;;
32216;SDS011;18709;51.140;4.088;2022-11-14T15:54:18;38.33;;;20.92;;
32216;SDS011;18709;51.140;4.088;2022-11-14T15:56:46;35.42;;;20.30;;
32216;SDS011;18709;51.140;4.088;2022-11-14T15:59:12;33.95;;;19.58;;
32216;SDS011;18709;51.140;4.088;2022-11-14T16:01:38;34.33;;;19.40;;
32216;SDS011;18709;51.140;4.088;2022-11-14T16:04:04;33.47;;;19.67;;
32216;SDS011;18709;51.140;4.088;2022-11-14T16:06:37;35.50;;;20.17;;
32216;SDS011;18709;51.140;4.088;2022-11-14T16:09:03;34.35;;;19.23;;
32216;SDS011;18709;51.140;4.088;2022-11-14T16:11:28;38.42;;;18.40;;
32216;SDS011;18709;51.140;4.088;2022-11-14T16:13:54;33.33;;;19.48;;
32216;SDS011;18709;51.140;4.088;2022-11-14T16:16:20;34.08;;;19.38;;
32216;SDS011;18709;51.140;4.088;2022-11-14T16:18:46;34.90;;;19.02;;
32216;SDS011;18709;51.140;4.088;2022-11-14T16:21:12;39.50;;;20.92;;
32216;SDS011;18709;51.140;4.088;2022-11-14T16:23:42;42.15;;;23.98;;
32216;SDS011;18709;51.140;4.088;2022-11-14T16:26:08;35.63;;;21.15;;
32216;SDS011;18709;51.140;4.088;2022-11-14T16:28:33;37.70;;;21.27;;
32216;SDS011;18709;51.140;4.088;2022-11-14T16:30:59;34.33;;;19.83;;
32216;SDS011;18709;51.140;4.088;2022-11-14T16:33:25;33.13;;;19.15;;
32216;SDS011;18709;51.140;4.088;2022-11-14T16:35:50;35.45;;;19.77;;
32216;SDS011;18709;51.140;4.088;2022-11-14T16:38:16;37.65;;;20.52;;
32216;SDS011;18709;51.140;4.088;2022-11-14T16:40:43;36.88;;;19.02;;
32216;SDS011;18709;51.140;4.088;2022-11-14T16:43:10;33.42;;;18.35;;
32216;SDS011;18709;51.140;4.088;2022-11-14T16:45:38;35.78;;;18.88;;
32216;SDS011;18709;51.140;4.088;2022-11-14T16:48:05;36.45;;;20.23;;
32216;SDS011;18709;51.140;4.088;2022-11-14T16:50:30;35.00;;;18.63;;